Terminal Aerodrome Forecast
Issued by NWS Charleston, WV

Current Version | Previous Version | Text Only | Print | Product List | Glossary Off
Versions: 1 2 3 4 5 6 7 8 9 10 11 12 13 14 15 16 17 18 19 20 21 22

000
FTUS41 KRLX 080200 AAA
TAFHTS
TAF AMD
KHTS 080231Z 0803/0824 21006KT P6SM VCTS SCT050CB
     FM080900 21008KT P6SM VCTS BKN040CB
     FM081600 21013G18KT 6SM SHRA BR VCTS BKN040CB
     FM081900 21015G22KT 4SM +TSRA BR BKN040CB=

USA.gov is the U.S. government's official web portal to all federal, state and local government web resources and services.